sensor_id;sensor_type;location;lat;lon;timestamp;temperature;humidity
68109;SHT30;54893;49.864;19.084;2022-09-09T00:03:43;16.24;94.79
68109;SHT30;54893;49.864;19.084;2022-09-09T00:08:53;16.08;95.04
68109;SHT30;54893;49.864;19.084;2022-09-09T00:14:00;15.98;95.50
68109;SHT30;54893;49.864;19.084;2022-09-09T00:19:27;16.01;95.25
68109;SHT30;54893;49.864;19.084;2022-09-09T00:24:39;15.90;95.55
68109;SHT30;54893;49.864;19.084;2022-09-09T00:29:46;15.97;95.45
68109;SHT30;54893;49.864;19.084;2022-09-09T00:34:53;15.91;95.46
68109;SHT30;54893;49.864;19.084;2022-09-09T00:39:58;15.91;95.31
68109;SHT30;54893;49.864;19.084;2022-09-09T00:55:39;15.91;95.45
68109;SHT30;54893;49.864;19.084;2022-09-09T01:00:44;16.00;95.29
68109;SHT30;54893;49.864;19.084;2022-09-09T01:11:10;16.01;95.38
68109;SHT30;54893;49.864;19.084;2022-09-09T01:16:14;16.11;95.16
68109;SHT30;54893;49.864;19.084;2022-09-09T01:21:50;16.15;95.07
68109;SHT30;54893;49.864;19.084;2022-09-09T01:26:59;16.07;95.12
68109;SHT30;54893;49.864;19.084;2022-09-09T01:32:37;16.01;95.19
68109;SHT30;54893;49.864;19.084;2022-09-09T01:37:38;16.08;94.95
68109;SHT30;54893;49.864;19.084;2022-09-09T01:42:38;16.01;94.94
68109;SHT30;54893;49.864;19.084;2022-09-09T01:47:38;15.91;94.92
68109;SHT30;54893;49.864;19.084;2022-09-09T01:52:39;15.85;95.00
68109;SHT30;54893;49.864;19.084;2022-09-09T01:57:52;15.83;94.85
68109;SHT30;54893;49.864;19.084;2022-09-09T02:03:06;15.73;95.18
68109;SHT30;54893;49.864;19.084;2022-09-09T02:08:11;15.70;94.93
68109;SHT30;54893;49.864;19.084;2022-09-09T02:13:17;15.70;95.03
68109;SHT30;54893;49.864;19.084;2022-09-09T02:18:28;15.70;95.00
68109;SHT30;54893;49.864;19.084;2022-09-09T02:23:32;15.71;95.00
68109;SHT30;54893;49.864;19.084;2022-09-09T02:28:33;15.77;94.89
68109;SHT30;54893;49.864;19.084;2022-09-09T02:33:39;15.85;94.41
68109;SHT30;54893;49.864;19.084;2022-09-09T02:38:46;15.84;94.48
68109;SHT30;54893;49.864;19.084;2022-09-09T02:43:51;15.85;94.31
68109;SHT30;54893;49.864;19.084;2022-09-09T02:49:10;15.88;94.26
68109;SHT30;54893;49.864;19.084;2022-09-09T02:54:31;15.98;93.93
68109;SHT30;54893;49.864;19.084;2022-09-09T02:59:32;15.94;93.90
68109;SHT30;54893;49.864;19.084;2022-09-09T03:04:32;15.88;93.84
68109;SHT30;54893;49.864;19.084;2022-09-09T03:09:33;15.88;94.06
68109;SHT30;54893;49.864;19.084;2022-09-09T03:14:33;15.88;93.68
68109;SHT30;54893;49.864;19.084;2022-09-09T03:19:33;15.94;93.44
68109;SHT30;54893;49.864;19.084;2022-09-09T03:24:35;15.85;93.53
68109;SHT30;54893;49.864;19.084;2022-09-09T03:29:35;15.78;93.66
68109;SHT30;54893;49.864;19.084;2022-09-09T03:34:36;15.75;93.64
68109;SHT30;54893;49.864;19.084;2022-09-09T03:39:39;15.80;93.50
68109;SHT30;54893;49.864;19.084;2022-09-09T03:44:40;15.75;93.51
68109;SHT30;54893;49.864;19.084;2022-09-09T03:49:42;15.71;93.52
68109;SHT30;54893;49.864;19.084;2022-09-09T03:54:42;15.64;93.35
68109;SHT30;54893;49.864;19.084;2022-09-09T03:59:43;15.50;93.74
68109;SHT30;54893;49.864;19.084;2022-09-09T04:04:43;15.24;94.18
68109;SHT30;54893;49.864;19.084;2022-09-09T04:09:44;15.11;94.76
68109;SHT30;54893;49.864;19.084;2022-09-09T04:14:44;15.00;95.14
68109;SHT30;54893;49.864;19.084;2022-09-09T04:19:44;14.89;95.41
68109;SHT30;54893;49.864;19.084;2022-09-09T04:24:45;14.82;95.93
68109;SHT30;54893;49.864;19.084;2022-09-09T04:29:45;14.79;95.99
68109;SHT30;54893;49.864;19.084;2022-09-09T04:34:45;14.72;96.32
68109;SHT30;54893;49.864;19.084;2022-09-09T04:39:47;14.65;96.51
68109;SHT30;54893;49.864;19.084;2022-09-09T04:44:48;14.64;96.56
68109;SHT30;54893;49.864;19.084;2022-09-09T04:49:48;14.72;96.49
68109;SHT30;54893;49.864;19.084;2022-09-09T04:54:48;14.72;96.17
68109;SHT30;54893;49.864;19.084;2022-09-09T04:59:49;14.75;95.98
68109;SHT30;54893;49.864;19.084;2022-09-09T05:04:49;14.85;95.80
68109;SHT30;54893;49.864;19.084;2022-09-09T05:09:49;14.92;95.55
68109;SHT30;54893;49.864;19.084;2022-09-09T05:14:50;15.02;94.96
68109;SHT30;54893;49.864;19.084;2022-09-09T05:19:50;15.22;94.30
68109;SHT30;54893;49.864;19.084;2022-09-09T05:24:51;15.55;93.32
68109;SHT30;54893;49.864;19.084;2022-09-09T05:29:51;16.24;91.82
68109;SHT30;54893;49.864;19.084;2022-09-09T05:34:51;16.93;90.31
68109;SHT30;54893;49.864;19.084;2022-09-09T05:39:52;17.27;89.57
68109;SHT30;54893;49.864;19.084;2022-09-09T05:44:53;17.30;89.56
68109;SHT30;54893;49.864;19.084;2022-09-09T05:49:55;17.64;88.58
68109;SHT30;54893;49.864;19.084;2022-09-09T05:54:55;18.18;87.41
68109;SHT30;54893;49.864;19.084;2022-09-09T05:59:57;18.63;86.17
68109;SHT30;54893;49.864;19.084;2022-09-09T06:04:57;18.92;85.88
68109;SHT30;54893;49.864;19.084;2022-09-09T06:09:57;19.06;85.39
68109;SHT30;54893;49.864;19.084;2022-09-09T06:14:59;19.19;85.00
68109;SHT30;54893;49.864;19.084;2022-09-09T06:19:59;19.56;83.81
68109;SHT30;54893;49.864;19.084;2022-09-09T06:24:59;19.54;83.74
68109;SHT30;54893;49.864;19.084;2022-09-09T06:30:01;19.69;83.12
68109;SHT30;54893;49.864;19.084;2022-09-09T06:35:03;19.57;82.20
68109;SHT30;54893;49.864;19.084;2022-09-09T06:40:03;19.70;82.58
68109;SHT30;54893;49.864;19.084;2022-09-09T06:45:04;20.31;80.63
68109;SHT30;54893;49.864;19.084;2022-09-09T06:50:05;21.07;78.89
68109;SHT30;54893;49.864;19.084;2022-09-09T06:55:07;21.60;75.24
68109;SHT30;54893;49.864;19.084;2022-09-09T07:00:08;21.49;77.67
68109;SHT30;54893;49.864;19.084;2022-09-09T07:05:09;21.56;74.31
68109;SHT30;54893;49.864;19.084;2022-09-09T07:10:09;21.49;74.57
68109;SHT30;54893;49.864;19.084;2022-09-09T07:15:10;22.14;72.48
68109;SHT30;54893;49.864;19.084;2022-09-09T07:20:11;22.02;72.61
68109;SHT30;54893;49.864;19.084;2022-09-09T07:25:12;22.30;70.12
68109;SHT30;54893;49.864;19.084;2022-09-09T07:30:14;21.30;72.85
68109;SHT30;54893;49.864;19.084;2022-09-09T07:35:14;20.61;73.04
68109;SHT30;54893;49.864;19.084;2022-09-09T07:40:15;21.54;71.61
68109;SHT30;54893;49.864;19.084;2022-09-09T07:45:15;21.56;69.39
68109;SHT30;54893;49.864;19.084;2022-09-09T07:50:16;21.46;72.69
68109;SHT30;54893;49.864;19.084;2022-09-09T07:55:16;21.51;69.43
68109;SHT30;54893;49.864;19.084;2022-09-09T08:00:17;21.10;71.80
68109;SHT30;54893;49.864;19.084;2022-09-09T08:05:19;21.07;73.30
68109;SHT30;54893;49.864;19.084;2022-09-09T08:10:19;21.40;72.09
68109;SHT30;54893;49.864;19.084;2022-09-09T08:15:20;22.17;70.20
68109;SHT30;54893;49.864;19.084;2022-09-09T08:20:20;22.64;68.83
68109;SHT30;54893;49.864;19.084;2022-09-09T08:25:21;22.54;68.20
68109;SHT30;54893;49.864;19.084;2022-09-09T08:30:22;23.16;67.40
68109;SHT30;54893;49.864;19.084;2022-09-09T08:35:22;23.98;65.47
68109;SHT30;54893;49.864;19.084;2022-09-09T08:40:29;23.90;62.49
68109;SHT30;54893;49.864;19.084;2022-09-09T08:45:49;22.81;65.05
68109;SHT30;54893;49.864;19.084;2022-09-09T08:50:51;22.22;66.35
68109;SHT30;54893;49.864;19.084;2022-09-09T08:55:54;21.66;67.65
68109;SHT30;54893;49.864;19.084;2022-09-09T09:12:00;23.39;63.33
68109;SHT30;54893;49.864;19.084;2022-09-09T09:17:04;24.07;60.28
68109;SHT30;54893;49.864;19.084;2022-09-09T09:22:36;24.40;61.01
68109;SHT30;54893;49.864;19.084;2022-09-09T09:27:52;23.46;63.07
68109;SHT30;54893;49.864;19.084;2022-09-09T09:32:57;23.83;62.68
68109;SHT30;54893;49.864;19.084;2022-09-09T09:37:58;24.25;61.61
68109;SHT30;54893;49.864;19.084;2022-09-09T09:43:01;23.70;62.10
68109;SHT30;54893;49.864;19.084;2022-09-09T09:48:04;23.54;62.95
68109;SHT30;54893;49.864;19.084;2022-09-09T09:53:06;24.30;61.45
68109;SHT30;54893;49.864;19.084;2022-09-09T09:58:17;23.47;62.17
68109;SHT30;54893;49.864;19.084;2022-09-09T10:03:32;23.08;63.80
68109;SHT30;54893;49.864;19.084;2022-09-09T10:08:45;22.75;63.82
68109;SHT30;54893;49.864;19.084;2022-09-09T10:19:32;24.62;60.91
68109;SHT30;54893;49.864;19.084;2022-09-09T10:36:13;25.05;58.41
68109;SHT30;54893;49.864;19.084;2022-09-09T10:46:22;24.96;57.72
68109;SHT30;54893;49.864;19.084;2022-09-09T10:51:39;24.41;57.72
68109;SHT30;54893;49.864;19.084;2022-09-09T10:56:43;24.91;57.57
68109;SHT30;54893;49.864;19.084;2022-09-09T11:01:49;24.88;56.86
68109;SHT30;54893;49.864;19.084;2022-09-09T11:06:54;23.10;58.52
68109;SHT30;54893;49.864;19.084;2022-09-09T11:11:58;23.42;60.93
68109;SHT30;54893;49.864;19.084;2022-09-09T11:17:06;24.57;57.83
68109;SHT30;54893;49.864;19.084;2022-09-09T11:22:29;24.48;56.34
68109;SHT30;54893;49.864;19.084;2022-09-09T11:38:25;23.73;53.12
68109;SHT30;54893;49.864;19.084;2022-09-09T11:43:31;24.16;54.30
68109;SHT30;54893;49.864;19.084;2022-09-09T11:48:39;24.94;53.72
68109;SHT30;54893;49.864;19.084;2022-09-09T11:54:00;24.76;53.22
68109;SHT30;54893;49.864;19.084;2022-09-09T11:59:17;23.57;56.87
68109;SHT30;54893;49.864;19.084;2022-09-09T12:19:41;24.03;57.86
68109;SHT30;54893;49.864;19.084;2022-09-09T12:24:54;24.34;57.10
68109;SHT30;54893;49.864;19.084;2022-09-09T12:30:01;24.55;56.59
68109;SHT30;54893;49.864;19.084;2022-09-09T12:35:15;24.27;55.87
68109;SHT30;54893;49.864;19.084;2022-09-09T12:40:28;24.48;56.81
68109;SHT30;54893;49.864;19.084;2022-09-09T12:45:31;24.34;56.28
68109;SHT30;54893;49.864;19.084;2022-09-09T12:50:35;24.03;55.68
68109;SHT30;54893;49.864;19.084;2022-09-09T12:55:38;23.87;57.04
68109;SHT30;54893;49.864;19.084;2022-09-09T13:00:49;24.06;57.61
68109;SHT30;54893;49.864;19.084;2022-09-09T13:05:51;24.27;55.80
68109;SHT30;54893;49.864;19.084;2022-09-09T13:11:00;24.67;55.56
68109;SHT30;54893;49.864;19.084;2022-09-09T13:16:04;24.86;53.74
68109;SHT30;54893;49.864;19.084;2022-09-09T13:21:07;24.38;55.96
68109;SHT30;54893;49.864;19.084;2022-09-09T13:26:25;24.25;54.79
68109;SHT30;54893;49.864;19.084;2022-09-09T13:31:30;23.94;57.08
68109;SHT30;54893;49.864;19.084;2022-09-09T13:36:33;23.66;56.76
68109;SHT30;54893;49.864;19.084;2022-09-09T13:41:44;23.67;54.95
68109;SHT30;54893;49.864;19.084;2022-09-09T13:46:46;23.59;57.41
68109;SHT30;54893;49.864;19.084;2022-09-09T13:51:49;23.10;59.48
68109;SHT30;54893;49.864;19.084;2022-09-09T13:56:50;22.95;56.80
68109;SHT30;54893;49.864;19.084;2022-09-09T14:01:51;23.02;59.06
68109;SHT30;54893;49.864;19.084;2022-09-09T14:06:52;23.33;58.95
68109;SHT30;54893;49.864;19.084;2022-09-09T14:11:53;23.98;56.55
68109;SHT30;54893;49.864;19.084;2022-09-09T14:16:55;23.90;58.13
68109;SHT30;54893;49.864;19.084;2022-09-09T14:21:55;23.56;59.30
68109;SHT30;54893;49.864;19.084;2022-09-09T14:26:56;23.77;59.00
68109;SHT30;54893;49.864;19.084;2022-09-09T14:31:56;24.30;57.37
68109;SHT30;54893;49.864;19.084;2022-09-09T14:36:56;24.79;57.09
68109;SHT30;54893;49.864;19.084;2022-09-09T14:41:57;28.48;51.82
68109;SHT30;54893;49.864;19.084;2022-09-09T14:46:58;30.60;48.56
68109;SHT30;54893;49.864;19.084;2022-09-09T14:51:58;27.21;53.83
68109;SHT30;54893;49.864;19.084;2022-09-09T14:56:59;25.36;56.84
68109;SHT30;54893;49.864;19.084;2022-09-09T15:01:59;25.59;53.97
68109;SHT30;54893;49.864;19.084;2022-09-09T15:07:04;24.92;57.82
68109;SHT30;54893;49.864;19.084;2022-09-09T15:12:04;25.39;55.07
68109;SHT30;54893;49.864;19.084;2022-09-09T15:17:04;25.63;57.16
68109;SHT30;54893;49.864;19.084;2022-09-09T15:22:05;26.31;55.51
68109;SHT30;54893;49.864;19.084;2022-09-09T15:27:06;28.13;51.09
68109;SHT30;54893;49.864;19.084;2022-09-09T15:32:06;27.32;52.78
68109;SHT30;54893;49.864;19.084;2022-09-09T15:37:09;24.38;57.34
68109;SHT30;54893;49.864;19.084;2022-09-09T15:42:10;23.03;61.76
68109;SHT30;54893;49.864;19.084;2022-09-09T15:47:12;22.14;64.34
68109;SHT30;54893;49.864;19.084;2022-09-09T15:52:13;21.53;66.04
68109;SHT30;54893;49.864;19.084;2022-09-09T15:57:13;21.46;64.74
68109;SHT30;54893;49.864;19.084;2022-09-09T16:02:13;21.20;64.59
68109;SHT30;54893;49.864;19.084;2022-09-09T16:07:14;20.98;65.40
68109;SHT30;54893;49.864;19.084;2022-09-09T16:12:14;20.65;69.10
68109;SHT30;54893;49.864;19.084;2022-09-09T16:17:14;20.53;67.56
68109;SHT30;54893;49.864;19.084;2022-09-09T16:22:15;20.29;68.66
68109;SHT30;54893;49.864;19.084;2022-09-09T16:27:16;20.10;69.42
68109;SHT30;54893;49.864;19.084;2022-09-09T16:32:16;19.85;70.23
68109;SHT30;54893;49.864;19.084;2022-09-09T16:37:16;19.66;70.92
68109;SHT30;54893;49.864;19.084;2022-09-09T16:42:17;19.50;72.09
68109;SHT30;54893;49.864;19.084;2022-09-09T16:47:18;19.26;74.03
68109;SHT30;54893;49.864;19.084;2022-09-09T16:52:18;18.96;75.76
68109;SHT30;54893;49.864;19.084;2022-09-09T16:57:18;18.72;76.42
68109;SHT30;54893;49.864;19.084;2022-09-09T17:02:19;18.55;76.79
68109;SHT30;54893;49.864;19.084;2022-09-09T17:07:19;18.44;77.01
68109;SHT30;54893;49.864;19.084;2022-09-09T17:12:19;18.21;76.40
68109;SHT30;54893;49.864;19.084;2022-09-09T17:17:21;18.04;76.34
68109;SHT30;54893;49.864;19.084;2022-09-09T17:22:21;17.95;77.84
68109;SHT30;54893;49.864;19.084;2022-09-09T17:27:23;17.78;78.79
68109;SHT30;54893;49.864;19.084;2022-09-09T17:32:23;17.73;78.33
68109;SHT30;54893;49.864;19.084;2022-09-09T17:37:24;17.67;79.90
68109;SHT30;54893;49.864;19.084;2022-09-09T17:42:24;17.46;80.26
68109;SHT30;54893;49.864;19.084;2022-09-09T17:47:25;17.39;80.96
68109;SHT30;54893;49.864;19.084;2022-09-09T17:52:25;17.40;78.07
68109;SHT30;54893;49.864;19.084;2022-09-09T17:57:26;17.39;77.92
68109;SHT30;54893;49.864;19.084;2022-09-09T18:02:27;17.34;77.47
68109;SHT30;54893;49.864;19.084;2022-09-09T18:07:28;17.24;78.44
68109;SHT30;54893;49.864;19.084;2022-09-09T18:12:29;17.17;80.37
68109;SHT30;54893;49.864;19.084;2022-09-09T18:17:30;17.17;79.72
68109;SHT30;54893;49.864;19.084;2022-09-09T18:22:32;17.20;79.88
68109;SHT30;54893;49.864;19.084;2022-09-09T18:27:33;17.10;81.17
68109;SHT30;54893;49.864;19.084;2022-09-09T18:32:33;17.05;81.78
68109;SHT30;54893;49.864;19.084;2022-09-09T18:37:33;16.96;80.67
68109;SHT30;54893;49.864;19.084;2022-09-09T18:42:35;16.97;82.00
68109;SHT30;54893;49.864;19.084;2022-09-09T18:47:35;16.89;81.67
68109;SHT30;54893;49.864;19.084;2022-09-09T18:52:36;16.86;82.55
68109;SHT30;54893;49.864;19.084;2022-09-09T18:57:37;16.73;82.55
68109;SHT30;54893;49.864;19.084;2022-09-09T19:02:37;16.62;82.98
68109;SHT30;54893;49.864;19.084;2022-09-09T19:07:38;16.55;84.07
68109;SHT30;54893;49.864;19.084;2022-09-09T19:12:40;16.49;81.66
68109;SHT30;54893;49.864;19.084;2022-09-09T19:17:40;16.44;83.81
68109;SHT30;54893;49.864;19.084;2022-09-09T19:22:41;16.33;84.24
68109;SHT30;54893;49.864;19.084;2022-09-09T19:27:41;16.33;83.34
68109;SHT30;54893;49.864;19.084;2022-09-09T19:32:42;16.35;83.97
68109;SHT30;54893;49.864;19.084;2022-09-09T19:37:42;16.33;81.54
68109;SHT30;54893;49.864;19.084;2022-09-09T19:42:42;16.38;81.08
68109;SHT30;54893;49.864;19.084;2022-09-09T19:47:43;16.41;84.67
68109;SHT30;54893;49.864;19.084;2022-09-09T19:52:43;16.36;83.64
68109;SHT30;54893;49.864;19.084;2022-09-09T19:57:44;16.41;85.72
68109;SHT30;54893;49.864;19.084;2022-09-09T20:02:44;16.33;84.51
68109;SHT30;54893;49.864;19.084;2022-09-09T20:07:44;16.35;83.36
68109;SHT30;54893;49.864;19.084;2022-09-09T20:12:45;16.41;83.14
68109;SHT30;54893;49.864;19.084;2022-09-09T20:17:45;16.44;82.90
68109;SHT30;54893;49.864;19.084;2022-09-09T20:22:45;16.48;82.69
68109;SHT30;54893;49.864;19.084;2022-09-09T20:27:46;16.36;83.68
68109;SHT30;54893;49.864;19.084;2022-09-09T20:32:46;16.25;85.61
68109;SHT30;54893;49.864;19.084;2022-09-09T20:37:46;16.19;85.22
68109;SHT30;54893;49.864;19.084;2022-09-09T20:42:47;16.42;83.22
68109;SHT30;54893;49.864;19.084;2022-09-09T20:47:47;16.49;82.87
68109;SHT30;54893;49.864;19.084;2022-09-09T20:52:48;16.53;82.28
68109;SHT30;54893;49.864;19.084;2022-09-09T20:57:48;16.49;82.81
68109;SHT30;54893;49.864;19.084;2022-09-09T21:02:50;16.42;83.55
68109;SHT30;54893;49.864;19.084;2022-09-09T21:07:51;16.38;83.99
68109;SHT30;54893;49.864;19.084;2022-09-09T21:12:51;16.32;84.54
68109;SHT30;54893;49.864;19.084;2022-09-09T21:17:53;16.47;85.12
68109;SHT30;54893;49.864;19.084;2022-09-09T21:22:53;16.39;85.37
68109;SHT30;54893;49.864;19.084;2022-09-09T21:27:54;16.35;86.07
68109;SHT30;54893;49.864;19.084;2022-09-09T21:32:54;16.26;87.71
68109;SHT30;54893;49.864;19.084;2022-09-09T21:37:55;16.11;85.44
68109;SHT30;54893;49.864;19.084;2022-09-09T21:42:55;16.22;83.78
68109;SHT30;54893;49.864;19.084;2022-09-09T21:47:56;16.39;84.30
68109;SHT30;54893;49.864;19.084;2022-09-09T21:52:56;16.28;84.39
68109;SHT30;54893;49.864;19.084;2022-09-09T21:57:56;16.12;87.67
68109;SHT30;54893;49.864;19.084;2022-09-09T22:02:58;16.01;86.51
68109;SHT30;54893;49.864;19.084;2022-09-09T22:07:58;16.01;87.11
68109;SHT30;54893;49.864;19.084;2022-09-09T22:12:59;16.04;88.19
68109;SHT30;54893;49.864;19.084;2022-09-09T22:18:00;16.02;85.93
68109;SHT30;54893;49.864;19.084;2022-09-09T22:23:02;16.07;84.45
68109;SHT30;54893;49.864;19.084;2022-09-09T22:28:04;16.07;86.05
68109;SHT30;54893;49.864;19.084;2022-09-09T22:33:05;15.90;88.35
68109;SHT30;54893;49.864;19.084;2022-09-09T22:38:06;15.84;88.17
68109;SHT30;54893;49.864;19.084;2022-09-09T22:43:13;15.83;87.80
68109;SHT30;54893;49.864;19.084;2022-09-09T22:48:14;15.90;88.40
68109;SHT30;54893;49.864;19.084;2022-09-09T22:53:16;15.84;88.99
68109;SHT30;54893;49.864;19.084;2022-09-09T22:58:17;15.83;90.24
68109;SHT30;54893;49.864;19.084;2022-09-09T23:03:18;15.85;90.26
68109;SHT30;54893;49.864;19.084;2022-09-09T23:08:22;15.75;90.83
68109;SHT30;54893;49.864;19.084;2022-09-09T23:13:23;15.65;91.35
68109;SHT30;54893;49.864;19.084;2022-09-09T23:18:24;15.63;91.00
68109;SHT30;54893;49.864;19.084;2022-09-09T23:23:26;15.57;92.17
68109;SHT30;54893;49.864;19.084;2022-09-09T23:28:29;15.51;92.97
68109;SHT30;54893;49.864;19.084;2022-09-09T23:33:29;15.43;93.78
68109;SHT30;54893;49.864;19.084;2022-09-09T23:38:30;15.41;91.11
68109;SHT30;54893;49.864;19.084;2022-09-09T23:43:31;15.46;91.21
68109;SHT30;54893;49.864;19.084;2022-09-09T23:48:35;15.37;91.83
68109;SHT30;54893;49.864;19.084;2022-09-09T23:53:39;15.30;92.52
68109;SHT30;54893;49.864;19.084;2022-09-09T23:58:39;15.41;90.86
